createdAt,value
2017-10-31T00:02:26.075Z,77.90
2017-10-31T00:04:52.306Z,78.40
2017-10-31T00:07:18.492Z,78.00
2017-10-31T00:09:44.661Z,78.20
2017-10-31T00:12:11.644Z,78.20
2017-10-31T00:14:38.644Z,78.10
2017-10-31T00:17:04.821Z,78.20
2017-10-31T00:19:31.729Z,78.60
2017-10-31T00:21:57.900Z,78.60
2017-10-31T00:24:24.817Z,78.80
2017-10-31T00:26:50.997Z,78.80
2017-10-31T00:29:17.184Z,78.10
2017-10-31T00:31:44.091Z,77.70
2017-10-31T00:34:10.239Z,77.70
2017-10-31T00:36:37.201Z,77.70
2017-10-31T00:39:04.125Z,77.10
2017-10-31T00:41:31.086Z,77.50
2017-10-31T00:43:57.968Z,77.70
2017-10-31T00:46:24.087Z,77.70
2017-10-31T00:48:50.278Z,77.70
2017-10-31T00:51:16.520Z,77.50
2017-10-31T00:53:43.476Z,78.70
2017-10-31T00:56:09.644Z,78.60
2017-10-31T00:58:35.868Z,79.10
2017-10-31T01:01:02.036Z,78.40
2017-10-31T01:03:28.212Z,78.40
2017-10-31T01:05:54.419Z,79.30
2017-10-31T01:08:20.575Z,78.20
2017-10-31T01:10:46.723Z,78.10
2017-10-31T01:13:12.963Z,77.90
2017-10-31T01:15:39.112Z,78.60
2017-10-31T01:18:05.981Z,78.40
2017-10-31T01:20:32.160Z,78.00
2017-10-31T01:22:59.164Z,77.50
2017-10-31T01:25:25.305Z,77.60
2017-10-31T01:27:51.504Z,78.80
2017-10-31T01:30:17.708Z,77.80
2017-10-31T01:32:44.609Z,77.50
2017-10-31T01:35:10.835Z,77.30
2017-10-31T01:37:36.981Z,78.20
2017-10-31T01:40:03.902Z,77.90
2017-10-31T01:42:31.142Z,78.00
2017-10-31T01:44:57.363Z,78.10
2017-10-31T01:47:23.577Z,77.70
2017-10-31T01:49:49.755Z,78.20
2017-10-31T01:52:16.020Z,78.30
2017-10-31T01:54:42.983Z,78.30
2017-10-31T01:57:09.162Z,78.30
2017-10-31T01:59:35.354Z,78.50
2017-10-31T02:02:01.553Z,77.70
2017-10-31T02:04:28.527Z,78.00
2017-10-31T02:06:54.745Z,78.00
2017-10-31T02:09:20.970Z,78.00
2017-10-31T02:11:47.205Z,78.10
2017-10-31T02:14:13.406Z,78.20
2017-10-31T02:16:40.368Z,77.90
2017-10-31T02:19:06.619Z,78.00
2017-10-31T02:21:32.817Z,78.40
2017-10-31T02:23:59.047Z,78.30
2017-10-31T02:26:25.263Z,77.50
2017-10-31T02:28:51.509Z,77.50
2017-10-31T02:31:18.433Z,77.20
2017-10-31T02:33:45.434Z,78.60
2017-10-31T02:36:11.638Z,78.60
2017-10-31T02:38:50.332Z,77.70
2017-10-31T02:41:16.533Z,77.60
2017-10-31T02:43:42.700Z,77.20
2017-10-31T02:46:09.644Z,77.80
2017-10-31T02:48:35.893Z,77.80
2017-10-31T02:51:02.180Z,77.30
2017-10-31T02:53:29.191Z,78.00
2017-10-31T02:55:55.447Z,78.00
2017-10-31T02:58:21.655Z,77.50
2017-10-31T03:00:47.848Z,78.20
2017-10-31T03:03:14.028Z,77.50
2017-10-31T03:05:41.016Z,79.20
2017-10-31T03:08:07.235Z,78.40
2017-10-31T03:10:34.240Z,78.50
2017-10-31T03:13:00.465Z,78.40
2017-10-31T03:15:26.652Z,77.30
2017-10-31T03:17:52.847Z,78.50
2017-10-31T03:20:19.840Z,78.70
2017-10-31T03:22:46.110Z,78.70
2017-10-31T03:25:13.060Z,78.00
2017-10-31T03:27:40.057Z,77.50
2017-10-31T03:30:06.329Z,77.50
2017-10-31T03:32:33.312Z,77.80
2017-10-31T03:34:59.500Z,77.20
2017-10-31T03:37:25.733Z,77.40
2017-10-31T03:39:52.708Z,77.00
2017-10-31T03:42:18.841Z,77.10
2017-10-31T03:44:45.102Z,76.00
2017-10-31T03:47:11.351Z,77.30
2017-10-31T03:49:38.308Z,77.60
2017-10-31T03:52:05.238Z,78.00
2017-10-31T03:54:31.450Z,78.10
2017-10-31T03:56:57.716Z,76.20
2017-10-31T03:59:24.649Z,76.90
2017-10-31T04:01:51.617Z,77.40
2017-10-31T04:04:18.497Z,76.70
2017-10-31T04:06:44.761Z,76.60
2017-10-31T04:09:10.972Z,77.40
2017-10-31T04:11:37.150Z,77.60
2017-10-31T04:14:04.134Z,77.40
2017-10-31T04:16:30.380Z,77.40
2017-10-31T04:18:56.533Z,77.10
2017-10-31T04:21:22.722Z,77.70
2017-10-31T04:23:48.986Z,77.20
2017-10-31T04:26:15.145Z,77.20
2017-10-31T04:28:41.335Z,77.70
2017-10-31T04:31:08.278Z,76.60
2017-10-31T04:33:35.265Z,77.80
2017-10-31T04:36:01.442Z,77.80
2017-10-31T04:38:27.645Z,76.20
2017-10-31T04:40:53.813Z,77.40
2017-10-31T04:43:20.776Z,76.10
2017-10-31T04:45:47.783Z,77.20
2017-10-31T04:48:14.020Z,77.20
2017-10-31T04:50:40.260Z,77.10
2017-10-31T04:53:06.491Z,76.50
2017-10-31T04:55:32.708Z,77.40
2017-10-31T04:57:58.945Z,76.00
2017-10-31T05:00:25.875Z,76.80
2017-10-31T05:02:52.042Z,76.80
2017-10-31T05:05:18.995Z,75.80
2017-10-31T05:07:45.240Z,75.70
2017-10-31T05:10:11.419Z,77.30
2017-10-31T05:12:38.388Z,76.90
2017-10-31T05:15:05.305Z,78.70
2017-10-31T05:17:31.474Z,78.70
2017-10-31T05:19:57.668Z,77.70
2017-10-31T05:22:24.552Z,78.50
2017-10-31T05:24:50.834Z,78.60
2017-10-31T05:27:18.143Z,77.70
2017-10-31T05:29:44.320Z,77.80
2017-10-31T05:32:11.228Z,78.10
2017-10-31T05:34:37.413Z,78.20
2017-10-31T05:37:04.294Z,77.10
2017-10-31T05:39:30.491Z,77.00
2017-10-31T05:41:56.712Z,76.80
2017-10-31T05:44:23.619Z,77.30
2017-10-31T05:46:49.804Z,77.30
2017-10-31T05:49:15.984Z,77.20
2017-10-31T05:51:42.877Z,77.10
2017-10-31T05:54:09.080Z,77.20
2017-10-31T05:56:36.019Z,77.70
2017-10-31T05:59:03.003Z,76.50
2017-10-31T06:01:29.221Z,76.50
2017-10-31T06:03:55.455Z,76.00
2017-10-31T06:06:21.637Z,76.90
2017-10-31T06:08:47.835Z,76.60
2017-10-31T06:11:13.977Z,76.30
2017-10-31T06:13:40.184Z,75.90
2017-10-31T06:16:06.344Z,77.10
2017-10-31T06:18:33.294Z,76.40
2017-10-31T06:21:00.244Z,77.00
2017-10-31T06:23:33.250Z,77.70
2017-10-31T06:29:07.044Z,77.70
2017-10-31T06:31:39.401Z,77.40
2017-10-31T06:34:05.624Z,77.30
2017-10-31T06:36:31.845Z,78.10
2017-10-31T06:38:58.003Z,77.50
2017-10-31T06:41:24.134Z,76.80
2017-10-31T06:43:50.300Z,79.00
2017-10-31T06:46:16.545Z,78.10
2017-10-31T06:48:42.745Z,77.80
2017-10-31T06:51:08.950Z,77.10
2017-10-31T06:53:35.115Z,78.30
2017-10-31T06:56:01.244Z,78.50
2017-10-31T06:58:27.452Z,78.70
2017-10-31T07:00:53.697Z,78.20
2017-10-31T07:03:19.894Z,78.70
2017-10-31T07:05:46.808Z,78.10
2017-10-31T07:08:13.018Z,78.10
2017-10-31T07:10:39.268Z,77.30
2017-10-31T07:13:05.463Z,77.80
2017-10-31T07:15:31.602Z,77.50
2017-10-31T07:17:57.755Z,77.70
2017-10-31T07:20:23.910Z,77.80
2017-10-31T07:22:50.895Z,79.10
2017-10-31T07:25:17.108Z,79.10
2017-10-31T07:27:43.270Z,79.30
2017-10-31T07:30:09.436Z,79.10
2017-10-31T07:32:36.335Z,79.40
2017-10-31T07:35:02.478Z,79.40
2017-10-31T07:37:28.626Z,78.90
2017-10-31T07:39:55.576Z,78.60
2017-10-31T07:42:22.552Z,78.80
2017-10-31T07:44:48.755Z,78.80
2017-10-31T07:47:14.947Z,79.70
2017-10-31T07:49:41.103Z,78.60
2017-10-31T07:52:08.010Z,79.80
2017-10-31T07:54:34.247Z,79.80
2017-10-31T07:57:00.457Z,79.70
2017-10-31T07:59:26.677Z,79.80
2017-10-31T08:01:52.880Z,80.30
2017-10-31T08:04:19.020Z,79.60
2017-10-31T08:06:45.139Z,79.70
2017-10-31T08:09:11.286Z,80.70
2017-10-31T08:11:37.504Z,79.80
2017-10-31T08:14:03.746Z,79.70
2017-10-31T08:16:29.904Z,79.30
2017-10-31T08:18:56.102Z,79.80
2017-10-31T08:21:22.277Z,78.80
2017-10-31T08:23:49.181Z,79.70
2017-10-31T08:26:15.374Z,79.70
2017-10-31T08:28:41.589Z,79.50
2017-10-31T08:31:08.657Z,79.70
2017-10-31T08:33:34.900Z,79.70
2017-10-31T08:36:01.126Z,78.80
2017-10-31T08:38:27.270Z,79.30
2017-10-31T08:40:53.492Z,79.30
2017-10-31T08:43:19.686Z,79.30
2017-10-31T08:45:45.856Z,79.80
2017-10-31T08:48:12.072Z,78.80
2017-10-31T08:50:38.353Z,80.10
2017-10-31T08:53:05.344Z,79.00
2017-10-31T08:55:31.517Z,79.00
2017-10-31T08:57:58.465Z,77.60
2017-10-31T09:00:25.408Z,79.30
2017-10-31T09:02:52.297Z,78.70
2017-10-31T09:05:18.517Z,78.70
2017-10-31T09:07:44.669Z,77.00
2017-10-31T09:10:10.847Z,75.70
2017-10-31T09:12:37.793Z,75.80
2017-10-31T09:15:03.997Z,75.70
2017-10-31T09:17:30.955Z,76.60
2017-10-31T09:19:57.922Z,76.00
2017-10-31T09:22:24.105Z,76.00
2017-10-31T09:24:51.023Z,75.50
2017-10-31T09:27:17.224Z,75.90
2017-10-31T09:29:43.386Z,75.60
2017-10-31T09:32:09.552Z,73.10
2017-10-31T09:34:36.493Z,74.40
2017-10-31T09:37:03.395Z,74.90
2017-10-31T09:39:29.576Z,74.00
2017-10-31T09:41:56.489Z,71.60
2017-10-31T09:44:23.447Z,73.10
2017-10-31T09:46:50.383Z,73.80
2017-10-31T09:49:17.293Z,73.70
2017-10-31T09:51:43.472Z,73.00
2017-10-31T09:54:10.382Z,72.40
2017-10-31T09:56:36.554Z,72.40
2017-10-31T09:59:03.443Z,70.40
2017-10-31T10:01:29.660Z,70.40
2017-10-31T10:03:55.956Z,67.70
2017-10-31T10:06:22.196Z,68.90
2017-10-31T10:08:48.424Z,65.70
2017-10-31T10:11:14.643Z,66.10
2017-10-31T10:13:40.899Z,65.70
2017-10-31T10:16:07.045Z,65.40
2017-10-31T10:18:33.202Z,65.60
2017-10-31T10:20:59.402Z,65.00
2017-10-31T10:23:25.587Z,67.60
2017-10-31T10:25:51.784Z,66.40
2017-10-31T10:28:18.794Z,64.80
2017-10-31T10:30:44.972Z,64.40
2017-10-31T10:33:11.935Z,64.90
2017-10-31T10:35:38.113Z,64.00
2017-10-31T10:38:04.320Z,64.40
2017-10-31T10:40:30.544Z,64.00
2017-10-31T10:42:56.754Z,61.50
2017-10-31T10:45:22.935Z,61.40
2017-10-31T10:47:49.130Z,62.30
2017-10-31T10:50:15.289Z,61.90
2017-10-31T10:52:42.217Z,62.80
2017-10-31T10:55:08.397Z,62.10
2017-10-31T10:57:35.361Z,58.80
2017-10-31T11:00:01.644Z,58.70
2017-10-31T11:02:27.907Z,61.70
2017-10-31T11:04:54.172Z,59.10
2017-10-31T11:07:20.357Z,59.40
2017-10-31T11:09:47.338Z,58.60
2017-10-31T11:12:13.571Z,58.50
2017-10-31T11:14:39.708Z,58.80
2017-10-31T11:17:05.960Z,59.90
2017-10-31T11:19:32.172Z,59.60
2017-10-31T11:21:59.189Z,57.80
2017-10-31T11:24:25.375Z,57.80
2017-10-31T11:26:52.305Z,59.80
2017-10-31T11:29:18.591Z,59.80
2017-10-31T11:31:44.844Z,61.20
2017-10-31T11:34:11.806Z,58.30
2017-10-31T11:36:38.736Z,59.50
2017-10-31T11:39:04.961Z,59.40
2017-10-31T11:41:31.090Z,59.70
2017-10-31T11:43:57.258Z,60.30
2017-10-31T11:46:24.192Z,62.90
2017-10-31T11:48:51.046Z,62.40
2017-10-31T11:51:17.960Z,61.40
2017-10-31T11:53:44.180Z,61.40
2017-10-31T11:56:10.419Z,61.50
2017-10-31T11:58:36.632Z,61.80
2017-10-31T12:01:02.853Z,62.70
2017-10-31T12:03:29.053Z,63.40
2017-10-31T12:05:55.327Z,63.80
2017-10-31T12:08:21.518Z,63.00
2017-10-31T12:10:47.780Z,62.70
2017-10-31T12:13:13.957Z,62.40
2017-10-31T12:15:40.133Z,62.80
2017-10-31T12:18:06.352Z,61.50
2017-10-31T12:20:32.501Z,62.50
2017-10-31T12:22:58.708Z,62.80
2017-10-31T12:25:24.935Z,62.80
2017-10-31T12:27:51.106Z,62.30
2017-10-31T12:30:18.072Z,62.30
2017-10-31T12:32:44.232Z,62.30
2017-10-31T12:35:10.394Z,62.60
2017-10-31T12:37:36.649Z,62.20
2017-10-31T12:40:02.894Z,62.30
2017-10-31T12:42:29.140Z,62.10
2017-10-31T12:44:55.360Z,61.20
2017-10-31T12:47:21.584Z,61.10
2017-10-31T12:49:47.786Z,61.70
2017-10-31T12:52:14.736Z,61.90
2017-10-31T12:54:40.961Z,61.90
2017-10-31T12:57:07.169Z,60.70
2017-10-31T12:59:34.196Z,61.10
2017-10-31T13:02:00.412Z,60.60
2017-10-31T13:04:26.636Z,60.90
2017-10-31T13:06:52.872Z,60.90
2017-10-31T13:09:19.116Z,61.50
2017-10-31T13:11:45.354Z,59.50
2017-10-31T13:14:12.342Z,59.70
2017-10-31T13:16:38.509Z,59.70
2017-10-31T13:19:04.708Z,61.00
2017-10-31T13:21:30.949Z,61.40
2017-10-31T13:23:57.153Z,61.40
2017-10-31T13:26:24.768Z,61.10
2017-10-31T13:28:52.240Z,60.60
2017-10-31T13:31:19.899Z,60.60
2017-10-31T13:33:48.216Z,60.50
2017-10-31T13:36:16.920Z,60.50
2017-10-31T13:38:44.374Z,59.50
2017-10-31T13:41:11.821Z,60.00
2017-10-31T13:43:40.152Z,60.00
2017-10-31T13:46:07.073Z,60.50
2017-10-31T13:48:34.012Z,60.50
2017-10-31T13:51:01.342Z,59.80
2017-10-31T13:53:28.552Z,60.40
2017-10-31T13:55:55.486Z,59.80
2017-10-31T13:58:22.463Z,60.10
2017-10-31T14:00:49.999Z,60.10
2017-10-31T14:03:18.053Z,59.80
2017-10-31T14:05:45.411Z,59.70
2017-10-31T14:08:13.058Z,60.00
2017-10-31T14:10:39.570Z,60.10
2017-10-31T14:13:05.762Z,59.50
2017-10-31T14:15:32.707Z,60.70
2017-10-31T14:18:00.343Z,60.70
2017-10-31T14:20:27.884Z,60.40
2017-10-31T14:22:54.071Z,60.40
2017-10-31T14:25:20.244Z,60.70
2017-10-31T14:27:46.451Z,60.70
2017-10-31T14:30:12.652Z,60.90
2017-10-31T14:32:38.823Z,61.20
2017-10-31T14:35:05.005Z,60.00
2017-10-31T14:37:31.195Z,60.20
2017-10-31T14:39:57.374Z,60.70
2017-10-31T14:42:23.573Z,60.40
2017-10-31T14:44:50.518Z,60.60
2017-10-31T14:47:17.534Z,60.10
2017-10-31T14:49:43.827Z,60.00
2017-10-31T14:52:10.034Z,58.10
2017-10-31T14:54:36.232Z,58.20
2017-10-31T14:57:02.429Z,57.90
2017-10-31T14:59:28.602Z,58.90
2017-10-31T15:01:55.599Z,58.80
2017-10-31T15:04:21.771Z,58.70
2017-10-31T15:06:48.699Z,59.00
2017-10-31T15:09:14.943Z,59.00
2017-10-31T15:11:41.884Z,58.50
2017-10-31T15:14:08.813Z,58.80
2017-10-31T15:16:35.028Z,58.80
2017-10-31T15:19:01.259Z,57.90
2017-10-31T15:21:27.495Z,58.40
2017-10-31T15:23:53.653Z,58.60
2017-10-31T15:26:20.581Z,58.60
2017-10-31T15:28:46.840Z,58.60
2017-10-31T15:31:13.078Z,58.30
2017-10-31T15:33:39.277Z,58.80
2017-10-31T15:36:06.229Z,58.10
2017-10-31T15:38:33.259Z,58.40
2017-10-31T15:41:00.179Z,59.40
2017-10-31T15:43:26.404Z,59.00
2017-10-31T15:45:52.648Z,59.50
2017-10-31T15:48:19.577Z,61.20
2017-10-31T15:50:45.734Z,61.30
2017-10-31T15:53:11.929Z,61.40
2017-10-31T15:55:38.132Z,61.10
2017-10-31T15:58:04.309Z,61.50
2017-10-31T16:00:31.307Z,61.70
2017-10-31T16:02:57.537Z,61.70
2017-10-31T16:05:23.670Z,61.50
2017-10-31T16:07:49.829Z,61.50
2017-10-31T16:10:16.045Z,61.50
2017-10-31T16:12:42.288Z,61.90
2017-10-31T16:15:08.442Z,62.40
2017-10-31T16:17:35.337Z,61.90
2017-10-31T16:20:01.510Z,61.90
2017-10-31T16:22:28.481Z,62.70
2017-10-31T16:24:54.698Z,62.70
2017-10-31T16:27:20.858Z,61.50
2017-10-31T16:29:47.069Z,62.80
2017-10-31T16:32:13.261Z,62.90
2017-10-31T16:34:40.168Z,63.20
2017-10-31T16:37:06.396Z,63.20
2017-10-31T16:39:32.582Z,64.20
2017-10-31T16:41:59.515Z,65.00
2017-10-31T16:44:26.458Z,66.10
2017-10-31T16:46:53.405Z,66.40
2017-10-31T16:49:20.360Z,66.70
2017-10-31T16:51:46.606Z,66.70
2017-10-31T16:54:12.819Z,66.50
2017-10-31T16:56:38.998Z,67.10
2017-10-31T16:59:05.233Z,67.50
2017-10-31T17:01:32.185Z,68.10
2017-10-31T17:03:58.407Z,68.10
2017-10-31T17:06:24.539Z,68.10
2017-10-31T17:08:51.434Z,68.40
2017-10-31T17:11:17.626Z,68.40
2017-10-31T17:13:44.534Z,68.70
2017-10-31T17:16:10.763Z,68.60
2017-10-31T17:18:36.959Z,68.00
2017-10-31T17:21:03.167Z,69.40
2017-10-31T17:23:30.078Z,70.20
2017-10-31T17:25:56.276Z,70.10
2017-10-31T17:28:22.468Z,70.30
2017-10-31T17:30:49.726Z,70.60
2017-10-31T17:33:16.669Z,70.90
2017-10-31T17:35:42.873Z,70.90
2017-10-31T17:38:09.039Z,71.40
2017-10-31T17:40:35.245Z,71.10
2017-10-31T17:43:02.173Z,71.90
2017-10-31T17:45:29.130Z,71.90
2017-10-31T17:47:56.082Z,71.70
2017-10-31T17:50:22.254Z,71.60
2017-10-31T17:52:48.484Z,71.80
2017-10-31T17:55:14.622Z,71.70
2017-10-31T17:57:40.824Z,71.60
2017-10-31T18:00:07.027Z,71.50
2017-10-31T18:02:33.247Z,71.50
2017-10-31T18:04:59.468Z,72.10
2017-10-31T18:07:26.377Z,71.80
2017-10-31T18:09:52.588Z,71.80
2017-10-31T18:12:18.740Z,71.90
2017-10-31T18:14:44.976Z,72.10
2017-10-31T18:17:11.110Z,72.10
2017-10-31T18:19:37.297Z,72.00
2017-10-31T18:22:03.452Z,71.50
2017-10-31T18:24:30.381Z,71.60
2017-10-31T18:26:56.541Z,71.70
2017-10-31T18:29:23.488Z,71.90
2017-10-31T18:31:50.484Z,72.20
2017-10-31T18:34:16.640Z,72.20
2017-10-31T18:36:42.831Z,72.00
2017-10-31T18:39:09.028Z,72.30
2017-10-31T18:41:36.029Z,72.60
2017-10-31T18:44:02.261Z,72.60
2017-10-31T18:46:28.466Z,72.60
2017-10-31T18:48:54.708Z,72.50
2017-10-31T18:51:20.924Z,72.40
2017-10-31T18:53:47.113Z,72.40
2017-10-31T18:56:13.994Z,72.70
2017-10-31T18:58:40.202Z,72.70
2017-10-31T19:01:06.411Z,72.70
2017-10-31T19:03:33.295Z,73.00
2017-10-31T19:05:59.520Z,73.00
2017-10-31T19:08:25.681Z,73.90
2017-10-31T19:10:52.545Z,73.30
2017-10-31T19:13:19.434Z,73.00
2017-10-31T19:15:45.574Z,73.00
2017-10-31T19:18:11.796Z,73.00
2017-10-31T19:20:37.998Z,72.70
2017-10-31T19:23:04.186Z,73.20
2017-10-31T19:25:31.183Z,72.70
2017-10-31T19:27:57.298Z,72.80
2017-10-31T19:30:23.545Z,73.90
2017-10-31T19:32:49.797Z,73.30
2017-10-31T19:35:16.005Z,72.70
2017-10-31T19:37:42.243Z,73.10
2017-10-31T19:40:08.452Z,73.00
2017-10-31T19:42:34.692Z,73.00
2017-10-31T19:45:00.913Z,72.70
2017-10-31T19:47:27.133Z,71.90
2017-10-31T19:49:53.355Z,71.40
2017-10-31T19:52:19.538Z,71.90
2017-10-31T19:54:45.725Z,71.20
2017-10-31T19:57:11.916Z,71.80
2017-10-31T19:59:38.898Z,70.60
2017-10-31T20:02:05.157Z,70.50
2017-10-31T20:04:31.396Z,72.70
2017-10-31T20:06:58.342Z,72.00
2017-10-31T20:09:24.580Z,72.00
2017-10-31T20:11:52.401Z,72.00
2017-10-31T20:14:18.584Z,71.60
2017-10-31T20:16:45.544Z,72.00
2017-10-31T20:19:11.830Z,72.00
2017-10-31T20:21:38.889Z,71.60
2017-10-31T20:24:05.928Z,71.70
2017-10-31T20:26:32.124Z,71.10
2017-10-31T20:28:58.353Z,69.90
2017-10-31T20:31:24.580Z,70.50
2017-10-31T20:33:50.730Z,70.40
2017-10-31T20:36:16.919Z,70.90
2017-10-31T20:38:43.126Z,71.30
2017-10-31T20:41:10.091Z,71.20
2017-10-31T20:43:36.369Z,71.10
2017-10-31T20:46:03.339Z,70.70
2017-10-31T20:48:30.242Z,70.30
2017-10-31T20:50:56.439Z,70.30
2017-10-31T20:53:22.711Z,71.30
2017-10-31T20:55:49.607Z,71.40
2017-10-31T20:58:15.759Z,71.40
2017-10-31T21:00:41.997Z,70.80
2017-10-31T21:03:08.237Z,71.20
2017-10-31T21:05:34.405Z,71.30
2017-10-31T21:08:01.332Z,71.00
2017-10-31T21:10:28.240Z,72.30
2017-10-31T21:12:54.475Z,71.70
2017-10-31T21:15:20.705Z,71.80
2017-10-31T21:17:46.877Z,71.90
2017-10-31T21:20:13.833Z,72.10
2017-10-31T21:22:39.976Z,72.10
2017-10-31T21:25:06.178Z,71.00
2017-10-31T21:27:32.354Z,70.90
2017-10-31T21:29:58.580Z,71.20
2017-10-31T21:32:24.817Z,71.40
2017-10-31T21:34:51.015Z,71.30
2017-10-31T21:37:17.170Z,70.30
2017-10-31T21:39:43.412Z,70.80
2017-10-31T21:42:10.346Z,71.40
2017-10-31T21:44:36.582Z,71.50
2017-10-31T21:47:02.762Z,70.90
2017-10-31T21:49:29.000Z,71.20
2017-10-31T21:51:55.181Z,71.80
2017-10-31T21:54:22.161Z,71.60
2017-10-31T21:56:48.353Z,71.60
2017-10-31T21:59:14.471Z,72.30
2017-10-31T22:01:41.356Z,71.70
2017-10-31T22:04:07.590Z,71.80
2017-10-31T22:06:33.773Z,72.10
2017-10-31T22:08:59.986Z,71.60
2017-10-31T22:11:26.286Z,71.40
2017-10-31T22:13:52.457Z,71.90
2017-10-31T22:16:19.395Z,71.60
2017-10-31T22:18:46.360Z,72.20
2017-10-31T22:21:13.245Z,72.70
2017-10-31T22:23:39.475Z,72.60
2017-10-31T22:26:05.657Z,72.40
2017-10-31T22:28:31.856Z,73.20
2017-10-31T22:30:57.965Z,73.30
2017-10-31T22:33:24.124Z,74.90
2017-10-31T22:35:51.053Z,76.70
2017-10-31T22:38:17.277Z,76.70
2017-10-31T22:40:43.452Z,76.60
2017-10-31T22:43:10.412Z,76.80
2017-10-31T22:45:36.627Z,76.90
2017-10-31T22:48:03.602Z,77.10
2017-10-31T22:50:29.779Z,77.00
2017-10-31T22:52:56.677Z,77.50
2017-10-31T22:55:22.844Z,77.60
2017-10-31T22:57:49.786Z,77.70
2017-10-31T23:00:16.764Z,77.70
2017-10-31T23:02:43.705Z,76.70
2017-10-31T23:05:10.636Z,76.50
2017-10-31T23:07:37.508Z,77.40
2017-10-31T23:10:03.786Z,77.40
2017-10-31T23:12:30.016Z,76.50
2017-10-31T23:14:56.202Z,76.50
2017-10-31T23:17:22.379Z,77.50
2017-10-31T23:19:48.525Z,77.10
2017-10-31T23:22:15.434Z,77.50
2017-10-31T23:24:41.640Z,76.70
2017-10-31T23:27:07.793Z,76.80
2017-10-31T23:29:34.001Z,76.60
2017-10-31T23:32:00.191Z,76.90
2017-10-31T23:34:26.366Z,76.60
2017-10-31T23:36:52.555Z,77.40
2017-10-31T23:39:18.751Z,77.30
2017-10-31T23:41:45.692Z,77.20
2017-10-31T23:44:11.812Z,77.20
2017-10-31T23:46:38.003Z,77.10
2017-10-31T23:49:04.217Z,77.60
2017-10-31T23:51:30.402Z,77.70
2017-10-31T23:53:57.309Z,77.10
2017-10-31T23:56:23.442Z,77.20
2017-10-31T23:58:49.583Z,76.60
